createdAt,value
2018-10-09T00:01:48.250Z,16.97
2018-10-09T00:04:51.859Z,21.50
2018-10-09T00:07:55.369Z,16.57
2018-10-09T00:10:58.934Z,19.47
2018-10-09T00:14:02.580Z,17.60
2018-10-09T00:17:06.196Z,17.10
2018-10-09T00:20:09.784Z,21.67
2018-10-09T00:23:13.293Z,15.47
2018-10-09T00:26:16.846Z,14.33
2018-10-09T00:29:20.429Z,17.73
2018-10-09T00:32:24.090Z,13.87
2018-10-09T00:35:27.662Z,15.87
2018-10-09T00:38:31.183Z,19.70
2018-10-09T00:41:34.707Z,16.57
2018-10-09T00:44:38.202Z,16.60
2018-10-09T00:47:42.027Z,16.93
2018-10-09T00:50:46.055Z,14.27
2018-10-09T00:53:49.660Z,13.50
2018-10-09T00:56:53.180Z,14.57
2018-10-09T00:59:56.702Z,18.40
2018-10-09T01:03:00.294Z,20.07
2018-10-09T01:06:04.054Z,22.23
2018-10-09T01:09:08.770Z,17.67
2018-10-09T01:12:12.370Z,21.50
2018-10-09T01:15:16.045Z,26.30
2018-10-09T01:18:19.699Z,24.73
2018-10-09T01:21:23.299Z,27.63
2018-10-09T01:24:26.824Z,23.00
2018-10-09T01:27:30.444Z,20.60
2018-10-09T01:30:34.616Z,25.07
2018-10-09T01:33:38.152Z,24.13
2018-10-09T01:36:41.769Z,23.17
2018-10-09T01:39:45.396Z,24.80
2018-10-09T01:42:48.880Z,25.33
2018-10-09T01:45:52.522Z,23.87
2018-10-09T01:48:55.977Z,22.70
2018-10-09T01:51:59.662Z,26.83
2018-10-09T01:55:03.381Z,25.60
2018-10-09T01:58:06.945Z,25.57
2018-10-09T02:01:10.520Z,23.03
2018-10-09T02:04:13.990Z,21.70
2018-10-09T02:07:17.516Z,23.23
2018-10-09T02:10:21.051Z,20.83
2018-10-09T02:13:24.705Z,22.90
2018-10-09T02:16:28.318Z,28.00
2018-10-09T02:19:31.919Z,27.80
2018-10-09T02:22:35.436Z,25.43
2018-10-09T02:25:39.083Z,25.70
2018-10-09T02:28:42.589Z,21.50
2018-10-09T02:31:46.131Z,27.70
2018-10-09T02:34:49.632Z,26.30
2018-10-09T02:37:53.157Z,23.40
2018-10-09T02:40:56.666Z,25.07
2018-10-09T02:44:00.221Z,23.03
2018-10-09T02:47:04.020Z,24.37
2018-10-09T02:50:07.852Z,26.60
2018-10-09T02:53:11.666Z,24.87
2018-10-09T02:56:15.270Z,30.80
2018-10-09T02:59:18.762Z,26.33
2018-10-09T03:02:22.288Z,26.50
2018-10-09T03:05:25.924Z,31.63
2018-10-09T03:08:29.415Z,29.83
2018-10-09T03:11:33.019Z,30.83
2018-10-09T03:14:36.743Z,33.33
2018-10-09T03:17:40.379Z,28.97
2018-10-09T03:20:43.903Z,28.63
2018-10-09T03:23:47.410Z,30.40
2018-10-09T03:26:51.068Z,30.93
2018-10-09T03:29:54.623Z,31.20
2018-10-09T03:32:58.263Z,29.97
2018-10-09T03:36:01.797Z,29.50
2018-10-09T03:39:07.556Z,27.80
2018-10-09T03:42:11.091Z,27.33
2018-10-09T03:45:14.833Z,28.20
2018-10-09T03:48:18.423Z,27.70
2018-10-09T03:51:21.932Z,27.47
2018-10-09T03:54:25.601Z,25.40
2018-10-09T03:57:29.312Z,31.07
2018-10-09T04:00:32.831Z,33.70
2018-10-09T04:03:36.387Z,30.17
2018-10-09T04:06:39.957Z,30.10
2018-10-09T04:09:43.605Z,28.63
2018-10-09T04:12:47.319Z,29.80
2018-10-09T04:15:50.841Z,31.37
2018-10-09T04:18:54.481Z,38.00
2018-10-09T04:21:57.991Z,33.93
2018-10-09T04:25:01.643Z,32.60
2018-10-09T04:28:05.122Z,32.20
2018-10-09T04:31:08.612Z,35.50
2018-10-09T04:34:12.210Z,31.80
2018-10-09T04:37:15.809Z,36.13
2018-10-09T04:40:19.308Z,36.87
2018-10-09T04:43:22.979Z,33.00
2018-10-09T04:46:26.558Z,40.73
2018-10-09T04:49:30.148Z,38.53
2018-10-09T04:52:33.603Z,33.03
2018-10-09T04:55:37.297Z,31.00
2018-10-09T04:58:40.932Z,29.77
2018-10-09T05:01:44.487Z,33.70
2018-10-09T05:04:47.989Z,34.97
2018-10-09T05:07:51.868Z,29.83
2018-10-09T05:10:55.457Z,34.17
2018-10-09T05:13:59.085Z,31.13
2018-10-09T05:17:02.733Z,39.47
2018-10-09T05:20:07.698Z,35.63
2018-10-09T05:23:11.443Z,37.80
2018-10-09T05:26:15.024Z,32.87
2018-10-09T05:29:18.648Z,42.33
2018-10-09T05:32:22.159Z,41.57
2018-10-09T05:35:25.775Z,32.23
2018-10-09T05:38:29.398Z,36.33
2018-10-09T05:41:32.974Z,31.40
2018-10-09T05:44:36.554Z,34.73
2018-10-09T05:47:40.209Z,36.53
2018-10-09T05:50:43.689Z,30.83
2018-10-09T05:53:47.433Z,38.03
2018-10-09T05:56:51.029Z,37.40
2018-10-09T05:59:55.222Z,40.60
2018-10-09T06:02:58.876Z,38.00
2018-10-09T06:06:02.672Z,37.83
2018-10-09T06:09:08.596Z,38.33
2018-10-09T06:12:12.088Z,30.63
2018-10-09T06:15:15.715Z,32.77
2018-10-09T06:18:19.308Z,32.50
2018-10-09T06:21:22.976Z,33.20
2018-10-09T06:24:26.529Z,31.53
2018-10-09T06:27:30.441Z,32.87
2018-10-09T06:30:34.590Z,36.23
2018-10-09T06:33:38.275Z,31.50
2018-10-09T06:36:41.815Z,33.50
2018-10-09T06:39:45.549Z,32.97
2018-10-09T06:42:49.223Z,26.57
2018-10-09T06:45:52.796Z,30.90
2018-10-09T06:48:56.435Z,24.63
2018-10-09T06:51:59.896Z,35.20
2018-10-09T06:55:03.540Z,30.83
2018-10-09T06:58:07.241Z,28.80
2018-10-09T07:01:10.857Z,30.57
2018-10-09T07:04:14.465Z,28.43
2018-10-09T07:07:18.091Z,32.23
2018-10-09T07:10:21.649Z,29.83
2018-10-09T07:13:25.216Z,28.07
2018-10-09T07:16:28.771Z,31.87
2018-10-09T07:19:32.389Z,28.60
2018-10-09T07:22:36.041Z,31.17
2018-10-09T07:25:39.555Z,34.43
2018-10-09T07:28:43.114Z,31.67
2018-10-09T07:31:46.673Z,31.50
2018-10-09T07:34:50.405Z,30.73
2018-10-09T07:37:54.021Z,31.23
2018-10-09T07:40:57.582Z,30.73
2018-10-09T07:44:01.250Z,30.07
2018-10-09T07:47:04.819Z,28.37
2018-10-09T07:50:08.446Z,30.50
2018-10-09T07:53:12.153Z,31.53
2018-10-09T07:56:15.791Z,36.43
2018-10-09T07:59:19.308Z,34.57
2018-10-09T08:02:22.905Z,29.77
2018-10-09T08:05:26.512Z,33.20
2018-10-09T08:08:30.223Z,32.30
2018-10-09T08:11:33.751Z,34.20
2018-10-09T08:14:37.338Z,23.80
2018-10-09T08:17:40.976Z,22.60
2018-10-09T08:20:44.518Z,25.57
2018-10-09T08:23:48.098Z,30.03
2018-10-09T08:26:51.765Z,31.27
2018-10-09T08:29:55.302Z,30.10
2018-10-09T08:32:59.036Z,32.23
2018-10-09T08:36:03.510Z,30.83
2018-10-09T08:39:07.336Z,33.27
2018-10-09T08:42:11.050Z,31.13
2018-10-09T08:45:14.701Z,27.23
2018-10-09T08:48:18.276Z,27.10
2018-10-09T08:51:22.761Z,30.33
2018-10-09T08:54:26.422Z,28.77
2018-10-09T08:57:30.059Z,27.43
2018-10-09T09:00:33.796Z,30.40
2018-10-09T09:03:37.314Z,26.50
2018-10-09T09:06:40.883Z,27.77
2018-10-09T09:09:44.452Z,27.43
2018-10-09T09:12:48.082Z,33.47
2018-10-09T09:15:51.702Z,35.87
2018-10-09T09:18:55.376Z,30.70
2018-10-09T09:21:59.127Z,27.07
2018-10-09T09:25:02.719Z,28.33
2018-10-09T09:28:06.284Z,33.20
2018-10-09T09:31:09.912Z,29.17
2018-10-09T09:34:13.473Z,27.93
2018-10-09T09:37:17.077Z,25.90
2018-10-09T09:40:20.692Z,26.60
2018-10-09T09:43:24.473Z,32.17
2018-10-09T09:46:28.022Z,29.33
2018-10-09T09:49:31.664Z,23.93
2018-10-09T09:52:35.251Z,25.63
2018-10-09T09:55:38.993Z,29.00
2018-10-09T09:58:42.942Z,28.17
2018-10-09T10:01:46.380Z,35.50
2018-10-09T10:04:50.192Z,33.50
2018-10-09T10:07:53.876Z,37.20
2018-10-09T10:10:57.621Z,33.37
2018-10-09T10:14:01.270Z,31.40
2018-10-09T10:17:04.931Z,34.20
2018-10-09T10:20:09.000Z,28.07
2018-10-09T10:23:12.633Z,31.23
2018-10-09T10:26:16.257Z,30.03
2018-10-09T10:29:19.967Z,26.57
2018-10-09T10:32:23.449Z,35.17
2018-10-09T10:35:27.090Z,33.03
2018-10-09T10:38:30.653Z,26.03
2018-10-09T10:41:34.154Z,26.90
2018-10-09T10:44:37.773Z,29.47
2018-10-09T10:47:41.429Z,27.40
2018-10-09T10:50:45.092Z,29.20
2018-10-09T10:53:48.677Z,31.00
2018-10-09T10:56:52.289Z,30.20
2018-10-09T10:59:55.868Z,33.70
2018-10-09T11:02:59.473Z,28.80
2018-10-09T11:06:03.114Z,35.13
2018-10-09T11:09:09.320Z,32.27
2018-10-09T11:12:12.918Z,30.67
2018-10-09T11:15:16.564Z,35.33
2018-10-09T11:18:20.226Z,30.90
2018-10-09T11:21:24.061Z,29.97
2018-10-09T11:24:27.603Z,32.23
2018-10-09T11:27:31.319Z,29.87
2018-10-09T11:30:34.913Z,28.87
2018-10-09T11:33:38.649Z,40.77
2018-10-09T11:36:42.161Z,29.00
2018-10-09T11:39:45.895Z,28.40
2018-10-09T11:42:49.497Z,31.67
2018-10-09T11:45:53.042Z,32.30
2018-10-09T11:48:56.538Z,29.13
2018-10-09T11:52:00.140Z,28.30
2018-10-09T11:55:03.995Z,26.37
2018-10-09T11:58:07.610Z,28.47
2018-10-09T12:01:11.370Z,31.43
2018-10-09T12:04:15.001Z,30.17
2018-10-09T12:07:18.704Z,38.20
2018-10-09T12:10:22.312Z,29.07
2018-10-09T12:13:25.812Z,29.57
2018-10-09T12:16:29.331Z,33.20
2018-10-09T12:19:33.014Z,26.83
2018-10-09T12:22:36.553Z,30.20
2018-10-09T12:25:40.243Z,26.20
2018-10-09T12:28:44.384Z,26.30
2018-10-09T12:31:48.020Z,31.43
2018-10-09T12:34:51.614Z,34.97
2018-10-09T12:37:55.353Z,25.90
2018-10-09T12:40:58.983Z,30.30
2018-10-09T12:44:02.682Z,32.27
2018-10-09T12:47:06.335Z,36.70
2018-10-09T12:50:10.543Z,31.87
2018-10-09T12:53:14.204Z,31.40
2018-10-09T12:56:17.775Z,29.97
2018-10-09T12:59:21.348Z,29.53
2018-10-09T13:02:24.906Z,27.23
2018-10-09T13:05:28.703Z,24.57
2018-10-09T13:08:32.404Z,29.87
2018-10-09T13:11:36.135Z,35.60
2018-10-09T13:14:39.784Z,24.10
2018-10-09T13:17:43.557Z,38.57
2018-10-09T13:20:47.186Z,28.83
2018-10-09T13:23:51.227Z,31.20
2018-10-09T13:26:54.882Z,28.40
2018-10-09T13:29:58.774Z,36.30
2018-10-09T13:33:02.409Z,27.10
2018-10-09T13:36:06.322Z,21.23
2018-10-09T13:39:09.983Z,26.27
2018-10-09T13:42:13.644Z,27.47
2018-10-09T13:45:17.383Z,26.97
2018-10-09T13:48:21.135Z,24.53
2018-10-09T13:51:24.709Z,24.40
2018-10-09T13:54:29.304Z,22.50
2018-10-09T13:57:32.870Z,19.40
2018-10-09T14:00:36.456Z,29.53
2018-10-09T14:03:40.129Z,29.50
2018-10-09T14:06:43.768Z,20.20
2018-10-09T14:09:47.338Z,30.00
2018-10-09T14:12:51.241Z,27.90
2018-10-09T14:15:54.823Z,22.33
2018-10-09T14:18:58.425Z,25.53
2018-10-09T14:22:02.027Z,27.27
2018-10-09T14:25:06.121Z,23.17
2018-10-09T14:28:09.835Z,24.07
2018-10-09T14:31:13.498Z,21.50
2018-10-09T14:34:17.166Z,26.03
2018-10-09T14:37:20.764Z,23.93
2018-10-09T14:40:24.335Z,21.80
2018-10-09T14:43:28.019Z,22.37
2018-10-09T14:46:31.730Z,23.33
2018-10-09T14:49:35.370Z,22.33
2018-10-09T14:52:39.049Z,29.83
2018-10-09T14:55:42.687Z,14.83
2018-10-09T14:58:46.345Z,22.33
2018-10-09T15:01:50.156Z,19.07
2018-10-09T15:04:53.673Z,15.50
2018-10-09T15:07:57.241Z,13.97
2018-10-09T15:11:00.850Z,14.50
2018-10-09T15:14:04.426Z,13.40
2018-10-09T15:17:08.324Z,12.83
2018-10-09T15:20:12.862Z,15.20
2018-10-09T15:23:16.500Z,12.47
2018-10-09T15:26:20.174Z,13.63
2018-10-09T15:29:23.820Z,11.07
2018-10-09T15:32:27.443Z,14.70
2018-10-09T15:35:31.273Z,13.40
2018-10-09T15:38:34.782Z,12.73
2018-10-09T15:41:38.933Z,16.73
2018-10-09T15:44:42.772Z,10.67
2018-10-09T15:47:46.516Z,12.17
2018-10-09T15:50:50.303Z,10.80
2018-10-09T15:53:54.091Z,14.07
2018-10-09T15:56:57.883Z,14.10
2018-10-09T16:00:01.447Z,13.90
2018-10-09T16:03:05.356Z,12.50
2018-10-09T16:06:09.048Z,16.60
2018-10-09T16:09:12.758Z,13.10
2018-10-09T16:12:16.383Z,17.37
2018-10-09T16:15:20.071Z,15.73
2018-10-09T16:18:23.827Z,14.80
2018-10-09T16:21:27.526Z,13.90
2018-10-09T16:24:31.136Z,15.57
2018-10-09T16:27:34.807Z,15.70
2018-10-09T16:30:38.436Z,14.63
2018-10-09T16:33:42.116Z,12.10
2018-10-09T16:36:45.937Z,14.10
2018-10-09T16:39:49.547Z,14.47
2018-10-09T16:42:53.215Z,18.53
2018-10-09T16:45:56.885Z,19.53
2018-10-09T16:49:00.560Z,22.63
2018-10-09T16:52:04.312Z,16.57
2018-10-09T16:55:08.035Z,15.47
2018-10-09T16:58:11.759Z,18.70
2018-10-09T17:01:15.487Z,20.33
2018-10-09T17:04:19.054Z,17.00
2018-10-09T17:07:22.921Z,21.53
2018-10-09T17:10:26.608Z,16.70
2018-10-09T17:13:30.246Z,21.83
2018-10-09T17:16:33.820Z,18.83
2018-10-09T17:19:37.547Z,19.70
2018-10-09T17:22:41.300Z,23.53
2018-10-09T17:25:44.976Z,19.23
2018-10-09T17:28:48.601Z,18.03
2018-10-09T17:31:52.171Z,23.17
2018-10-09T17:34:55.955Z,18.90
2018-10-09T17:37:59.593Z,20.97
2018-10-09T17:41:03.261Z,20.80
2018-10-09T17:44:06.921Z,13.97
2018-10-09T17:47:10.951Z,15.00
2018-10-09T17:50:14.528Z,19.53
2018-10-09T17:53:18.328Z,19.80
2018-10-09T17:56:21.942Z,18.60
2018-10-09T17:59:25.587Z,18.17
2018-10-09T18:02:29.258Z,16.60
2018-10-09T18:05:33.038Z,16.63
2018-10-09T18:08:36.653Z,13.90
2018-10-09T18:11:40.618Z,16.57
2018-10-09T18:14:44.271Z,18.47
2018-10-09T18:17:48.022Z,21.03
2018-10-09T18:20:51.719Z,17.20
2018-10-09T18:23:55.434Z,17.03
2018-10-09T18:26:59.240Z,20.30
2018-10-09T18:30:02.842Z,16.23
2018-10-09T18:33:06.875Z,17.17
2018-10-09T18:36:11.105Z,19.53
2018-10-09T18:39:16.188Z,21.23
2018-10-09T18:42:19.871Z,18.57
2018-10-09T18:45:23.551Z,20.37
2018-10-09T18:48:27.244Z,18.50
2018-10-09T18:51:31.005Z,15.77
2018-10-09T18:54:34.695Z,16.23
2018-10-09T18:57:38.433Z,15.50
2018-10-09T19:00:42.182Z,22.37
2018-10-09T19:03:45.878Z,23.90
2018-10-09T19:06:49.510Z,25.20
2018-10-09T19:09:53.187Z,19.80
2018-10-09T19:12:57.134Z,26.50
2018-10-09T19:16:00.869Z,19.17
2018-10-09T19:19:04.599Z,20.10
2018-10-09T19:22:08.338Z,19.83
2018-10-09T19:25:12.058Z,18.20
2018-10-09T19:28:15.853Z,21.77
2018-10-09T19:31:19.422Z,21.27
2018-10-09T19:34:23.331Z,22.83
2018-10-09T19:37:27.085Z,27.53
2018-10-09T19:40:30.704Z,24.70
2018-10-09T19:43:34.463Z,21.93
2018-10-09T19:46:38.735Z,19.43
2018-10-09T19:49:42.542Z,19.23
2018-10-09T19:52:46.313Z,20.90
2018-10-09T19:55:50.130Z,26.03
2018-10-09T19:58:55.195Z,27.10
2018-10-09T20:01:58.857Z,27.13
2018-10-09T20:05:02.490Z,25.47
2018-10-09T20:08:06.283Z,23.50
2018-10-09T20:11:09.985Z,23.43
2018-10-09T20:14:14.861Z,25.60
2018-10-09T20:17:18.435Z,25.77
2018-10-09T20:20:22.202Z,28.40
2018-10-09T20:23:25.808Z,28.37
2018-10-09T20:26:29.510Z,24.40
2018-10-09T20:29:33.165Z,24.77
2018-10-09T20:32:36.901Z,24.77
2018-10-09T20:35:40.464Z,27.27
2018-10-09T20:38:48.455Z,29.40
2018-10-09T20:41:53.094Z,24.60
2018-10-09T20:44:56.756Z,24.20
2018-10-09T20:48:00.392Z,29.30
2018-10-09T20:51:04.410Z,29.47
2018-10-09T20:54:08.181Z,23.33
2018-10-09T20:57:11.837Z,24.00
2018-10-09T21:00:15.480Z,24.77
2018-10-09T21:03:19.095Z,22.80
2018-10-09T21:06:22.686Z,23.30
2018-10-09T21:09:26.483Z,23.57
2018-10-09T21:12:30.241Z,30.50
2018-10-09T21:15:40.722Z,26.00
2018-10-09T21:18:44.354Z,26.97
2018-10-09T21:21:47.919Z,32.07
2018-10-09T21:24:51.562Z,26.73
2018-10-09T21:27:55.201Z,29.60
2018-10-09T21:30:58.946Z,27.07
2018-10-09T21:34:02.599Z,42.10
2018-10-09T21:37:06.261Z,34.33
2018-10-09T21:40:09.881Z,33.83
2018-10-09T21:43:13.410Z,41.23
2018-10-09T21:46:17.281Z,39.20
2018-10-09T21:49:22.175Z,39.50
2018-10-09T21:52:25.680Z,37.90
2018-10-09T21:55:29.791Z,40.53
2018-10-09T21:58:33.335Z,37.70
2018-10-09T22:01:36.859Z,40.27
2018-10-09T22:04:40.349Z,39.93
2018-10-09T22:07:43.992Z,45.87
2018-10-09T22:10:47.553Z,39.53
2018-10-09T22:13:51.062Z,46.27
2018-10-09T22:16:54.639Z,45.17
2018-10-09T22:19:58.617Z,43.13
2018-10-09T22:23:02.190Z,43.40
2018-10-09T22:26:05.737Z,36.97
2018-10-09T22:29:09.280Z,44.33
2018-10-09T22:32:12.804Z,42.33
2018-10-09T22:35:16.269Z,46.67
2018-10-09T22:38:19.811Z,45.93
2018-10-09T22:41:23.548Z,43.90
2018-10-09T22:44:27.123Z,52.40
2018-10-09T22:47:30.689Z,42.70
2018-10-09T22:50:34.281Z,50.07
2018-10-09T22:53:37.838Z,46.97
2018-10-09T22:56:41.405Z,41.53
2018-10-09T22:59:44.889Z,50.53
2018-10-09T23:02:48.645Z,50.30
2018-10-09T23:05:52.256Z,51.77
2018-10-09T23:08:55.765Z,51.23
2018-10-09T23:11:59.370Z,49.33
2018-10-09T23:15:02.970Z,54.63
2018-10-09T23:18:06.520Z,44.03
2018-10-09T23:21:10.145Z,49.37
2018-10-09T23:24:13.724Z,50.23
2018-10-09T23:27:17.302Z,50.40
2018-10-09T23:30:20.817Z,57.00
2018-10-09T23:33:24.569Z,53.80
2018-10-09T23:36:28.175Z,54.43
2018-10-09T23:39:32.071Z,51.90
2018-10-09T23:42:35.681Z,55.07
2018-10-09T23:45:39.254Z,55.87
2018-10-09T23:48:42.873Z,50.80
2018-10-09T23:51:46.547Z,51.77
2018-10-09T23:54:50.108Z,51.90
2018-10-09T23:57:53.710Z,48.50
